createdAt,value
2022-10-07T00:01:48.630Z,2.90
2022-10-07T00:06:56.256Z,2.80
2022-10-07T00:12:04.099Z,2.90
2022-10-07T00:17:11.299Z,2.60
2022-10-07T00:22:18.487Z,2.70
2022-10-07T00:27:25.637Z,2.60
2022-10-07T00:32:32.936Z,3.00
2022-10-07T00:37:43.728Z,2.60
2022-10-07T00:42:51.346Z,3.40
2022-10-07T00:47:58.718Z,2.60
2022-10-07T00:53:06.834Z,3.00
2022-10-07T00:58:14.962Z,2.90
2022-10-07T01:03:22.594Z,3.20
2022-10-07T01:08:29.956Z,2.90
2022-10-07T01:13:42.827Z,2.90
2022-10-07T01:18:56.122Z,2.90
2022-10-07T01:24:16.446Z,3.00
2022-10-07T01:29:29.754Z,3.00
2022-10-07T01:34:39.286Z,3.10
2022-10-07T01:39:51.618Z,3.00
2022-10-07T01:50:07.603Z,3.30
2022-10-07T01:55:35.996Z,2.60
2022-10-07T02:00:48.619Z,3.40
2022-10-07T02:06:03.446Z,3.20
2022-10-07T02:11:16.624Z,3.10
2022-10-07T02:16:31.750Z,2.60
2022-10-07T02:26:47.018Z,3.60
2022-10-07T02:31:57.080Z,3.00
2022-10-07T02:37:08.090Z,3.10
2022-10-07T02:42:24.590Z,3.30
2022-10-07T02:47:36.031Z,2.80
2022-10-07T02:52:45.241Z,2.60
2022-10-07T02:57:57.777Z,2.20
2022-10-07T03:03:06.151Z,2.80
2022-10-07T03:08:21.571Z,2.80
2022-10-07T03:13:29.249Z,2.80
2022-10-07T03:18:39.406Z,2.70
2022-10-07T03:24:05.442Z,2.70
2022-10-07T03:29:17.830Z,2.80
2022-10-07T03:34:27.306Z,3.00
2022-10-07T03:39:35.110Z,2.90
2022-10-07T03:44:42.791Z,2.90
2022-10-07T03:49:49.950Z,3.20
2022-10-07T03:54:58.152Z,3.30
2022-10-07T04:00:06.030Z,3.20
2022-10-07T04:05:23.390Z,3.00
2022-10-07T04:10:31.212Z,3.10
2022-10-07T04:15:40.741Z,3.20
2022-10-07T04:20:48.474Z,2.80
2022-10-07T04:25:56.241Z,2.90
2022-10-07T04:31:07.306Z,3.20
2022-10-07T04:41:28.919Z,3.00
2022-10-07T04:46:36.494Z,3.00
2022-10-07T04:51:51.198Z,3.10
2022-10-07T04:56:58.713Z,3.70
2022-10-07T05:02:06.629Z,3.20
2022-10-07T05:07:14.869Z,3.00
2022-10-07T05:12:22.290Z,3.70
2022-10-07T05:17:29.408Z,3.40
2022-10-07T05:22:37.204Z,3.80
2022-10-07T05:27:44.786Z,4.10
2022-10-07T05:32:54.829Z,4.30
2022-10-07T05:38:02.469Z,4.20
2022-10-07T05:43:11.431Z,3.50
2022-10-07T05:48:18.651Z,3.90
2022-10-07T05:53:26.541Z,3.50
2022-10-07T05:58:34.411Z,3.40
2022-10-07T06:03:42.174Z,3.10
2022-10-07T06:08:51.029Z,4.00
2022-10-07T06:13:59.124Z,3.80
2022-10-07T06:19:22.890Z,3.80
2022-10-07T06:24:34.254Z,4.30
2022-10-07T06:29:42.848Z,3.90
2022-10-07T06:34:50.195Z,4.30
2022-10-07T06:39:59.639Z,3.70
2022-10-07T06:45:09.423Z,3.90
2022-10-07T06:50:17.211Z,3.90
2022-10-07T06:55:24.552Z,3.40
2022-10-07T07:00:32.148Z,3.50
2022-10-07T07:05:44.592Z,3.60
2022-10-07T07:10:55.330Z,3.20
2022-10-07T07:16:03.661Z,3.30
2022-10-07T07:21:13.238Z,3.60
2022-10-07T07:26:21.799Z,3.20
2022-10-07T07:31:31.430Z,3.30
2022-10-07T07:36:39.382Z,2.90
2022-10-07T07:41:48.142Z,2.70
2022-10-07T07:46:56.224Z,2.60
2022-10-07T07:52:04.683Z,2.70
2022-10-07T07:57:16.075Z,2.60
2022-10-07T08:02:24.178Z,2.40
2022-10-07T08:07:33.531Z,2.60
2022-10-07T08:12:41.248Z,2.30
2022-10-07T08:17:48.912Z,1.90
2022-10-07T08:22:59.073Z,2.60
2022-10-07T08:28:06.733Z,2.10
2022-10-07T08:33:14.213Z,2.10
2022-10-07T08:38:21.441Z,2.00
2022-10-07T08:43:29.162Z,1.80
2022-10-07T08:48:39.965Z,1.80
2022-10-07T08:53:49.950Z,1.70
2022-10-07T08:59:10.689Z,1.70
2022-10-07T09:04:29.715Z,1.70
2022-10-07T09:09:42.662Z,1.60
2022-10-07T09:14:53.232Z,1.60
2022-10-07T09:20:03.810Z,1.40
2022-10-07T09:25:22.809Z,1.70
2022-10-07T09:30:30.376Z,2.10
2022-10-07T09:35:38.532Z,1.50
2022-10-07T09:41:01.657Z,1.70
2022-10-07T09:46:26.701Z,1.40
2022-10-07T09:51:35.685Z,1.40
2022-10-07T09:56:44.754Z,1.40
2022-10-07T10:01:59.337Z,1.60
2022-10-07T10:07:17.819Z,1.70
2022-10-07T10:12:28.979Z,1.50
2022-10-07T10:17:42.198Z,1.80
2022-10-07T10:22:49.177Z,1.50
2022-10-07T10:28:02.982Z,1.60
2022-10-07T10:33:27.037Z,1.70
2022-10-07T10:38:47.445Z,1.60
2022-10-07T10:44:17.910Z,1.90
2022-10-07T10:49:31.777Z,1.50
2022-10-07T10:54:48.476Z,1.40
2022-10-07T11:00:09.772Z,1.70
2022-10-07T11:05:22.682Z,1.20
2022-10-07T11:10:36.029Z,1.10
2022-10-07T11:15:49.250Z,1.50
2022-10-07T11:20:58.211Z,1.20
2022-10-07T11:26:13.713Z,1.40
2022-10-07T11:31:27.793Z,1.50
2022-10-07T11:36:45.832Z,1.70
2022-10-07T11:41:58.992Z,1.50
2022-10-07T11:47:08.583Z,1.70
2022-10-07T11:52:23.733Z,1.70
2022-10-07T11:57:36.249Z,1.30
2022-10-07T12:02:51.502Z,1.80
2022-10-07T12:08:04.032Z,1.40
2022-10-07T12:13:41.399Z,1.50
2022-10-07T12:19:23.900Z,1.50
2022-10-07T12:24:32.245Z,1.40
2022-10-07T12:29:59.072Z,1.40
2022-10-07T12:35:36.728Z,1.80
2022-10-07T12:40:46.245Z,1.70
2022-10-07T12:45:54.726Z,1.60
2022-10-07T12:51:03.606Z,1.40
2022-10-07T12:56:16.982Z,1.60
2022-10-07T13:01:38.208Z,2.20
2022-10-07T13:07:48.114Z,2.20
2022-10-07T13:13:03.118Z,2.20
2022-10-07T13:18:18.820Z,2.60
2022-10-07T13:23:28.761Z,2.60
2022-10-07T13:28:46.102Z,2.50
2022-10-07T13:33:54.535Z,2.00
2022-10-07T13:39:22.118Z,2.00
2022-10-07T13:44:32.979Z,2.00
2022-10-07T13:49:44.417Z,2.10
2022-10-07T13:54:56.049Z,1.60
2022-10-07T14:00:04.238Z,1.50
2022-10-07T14:05:26.341Z,1.40
2022-10-07T14:10:35.099Z,1.70
2022-10-07T14:15:49.061Z,1.70
2022-10-07T14:20:59.264Z,1.60
2022-10-07T14:26:10.144Z,1.60
2022-10-07T14:31:41.119Z,1.90
2022-10-07T14:37:05.649Z,1.60
2022-10-07T14:42:16.991Z,1.50
2022-10-07T14:47:26.076Z,1.90
2022-10-07T14:52:35.617Z,1.60
2022-10-07T14:57:42.833Z,2.10
2022-10-07T15:02:50.609Z,1.40
2022-10-07T15:07:57.650Z,1.50
2022-10-07T15:13:09.808Z,1.50
2022-10-07T15:18:20.498Z,1.70
2022-10-07T15:23:28.568Z,1.50
2022-10-07T15:28:36.131Z,1.30
2022-10-07T15:33:43.153Z,1.30
2022-10-07T15:38:50.273Z,1.50
2022-10-07T15:43:57.772Z,1.40
2022-10-07T15:49:05.750Z,1.40
2022-10-07T15:54:13.394Z,1.60
2022-10-07T15:59:20.877Z,1.60
2022-10-07T16:04:28.356Z,2.70
2022-10-07T16:09:35.505Z,2.70
2022-10-07T16:14:42.707Z,2.80
2022-10-07T16:19:49.809Z,3.00
2022-10-07T16:24:57.074Z,2.60
2022-10-07T16:30:21.461Z,3.00
2022-10-07T16:35:30.654Z,2.80
2022-10-07T16:40:37.993Z,3.50
2022-10-07T16:45:45.307Z,5.10
2022-10-07T16:50:52.886Z,6.40
2022-10-07T16:56:02.357Z,12.40
2022-10-07T17:01:11.486Z,18.80
2022-10-07T17:06:19.803Z,25.00
2022-10-07T17:11:33.423Z,21.40
2022-10-07T17:16:43.403Z,14.60
2022-10-07T17:21:52.005Z,12.60
2022-10-07T17:26:59.629Z,7.80
2022-10-07T17:32:07.934Z,5.30
2022-10-07T17:37:15.074Z,4.60
2022-10-07T17:42:22.081Z,4.60
2022-10-07T17:47:29.546Z,3.30
2022-10-07T17:52:37.285Z,3.00
2022-10-07T17:57:44.460Z,3.00
2022-10-07T18:02:54.575Z,3.00
2022-10-07T18:08:02.666Z,3.30
2022-10-07T18:13:27.198Z,3.80
2022-10-07T18:18:34.364Z,3.80
2022-10-07T18:23:41.794Z,3.90
2022-10-07T18:28:49.529Z,3.90
2022-10-07T18:33:57.929Z,4.50
2022-10-07T18:39:09.141Z,5.50
2022-10-07T18:44:17.269Z,5.70
2022-10-07T18:49:24.649Z,5.00
2022-10-07T18:54:31.655Z,5.50
2022-10-07T18:59:38.888Z,5.50
2022-10-07T19:04:46.039Z,5.60
2022-10-07T19:09:53.014Z,5.60
2022-10-07T19:15:00.164Z,6.30
2022-10-07T19:20:08.343Z,6.00
2022-10-07T19:25:32.627Z,7.00
2022-10-07T19:30:42.489Z,7.30
2022-10-07T19:35:54.912Z,7.40
2022-10-07T19:46:07.967Z,6.60
2022-10-07T19:51:16.955Z,6.40
2022-10-07T19:56:25.916Z,7.20
2022-10-07T20:01:37.156Z,7.20
2022-10-07T20:06:44.909Z,8.10
2022-10-07T20:11:52.105Z,8.80
2022-10-07T20:16:59.740Z,8.80
2022-10-07T20:22:06.871Z,7.70
2022-10-07T20:27:14.057Z,7.80
2022-10-07T20:32:21.228Z,6.10
2022-10-07T20:37:28.512Z,5.80
2022-10-07T20:42:36.689Z,5.50
2022-10-07T20:47:44.763Z,5.20
2022-10-07T20:52:51.989Z,5.90
2022-10-07T20:57:59.073Z,5.30
2022-10-07T21:03:06.198Z,5.80
2022-10-07T21:08:13.321Z,6.00
2022-10-07T21:13:20.817Z,5.80
2022-10-07T21:18:27.855Z,5.60
2022-10-07T21:23:34.848Z,5.90
2022-10-07T21:28:42.433Z,7.00
2022-10-07T21:33:51.281Z,7.30
2022-10-07T21:39:01.904Z,7.20
2022-10-07T21:44:11.633Z,7.20
2022-10-07T21:49:19.213Z,7.00
2022-10-07T21:54:26.747Z,7.30
2022-10-07T21:59:35.457Z,7.30
2022-10-07T22:04:42.851Z,7.60
2022-10-07T22:09:49.829Z,7.00
2022-10-07T22:14:56.957Z,7.40
2022-10-07T22:20:04.251Z,7.20
2022-10-07T22:25:12.132Z,7.70
2022-10-07T22:30:19.468Z,7.40
2022-10-07T22:35:30.587Z,7.80
2022-10-07T22:40:40.324Z,8.00
2022-10-07T22:45:56.452Z,7.70
2022-10-07T22:51:08.754Z,7.50
2022-10-07T22:56:18.238Z,8.20
2022-10-07T23:01:25.588Z,7.60
2022-10-07T23:06:33.669Z,7.70
2022-10-07T23:11:40.716Z,8.20
2022-10-07T23:16:48.128Z,7.70
2022-10-07T23:21:55.426Z,8.30
2022-10-07T23:27:02.720Z,7.80
2022-10-07T23:32:10.127Z,7.60
2022-10-07T23:37:17.478Z,7.90
2022-10-07T23:42:25.446Z,7.80
2022-10-07T23:47:32.730Z,7.80
2022-10-07T23:52:40.023Z,8.10
2022-10-07T23:57:46.987Z,8.50
